sensor_id;sensor_type;location;lat;lon;timestamp;P1;durP1;ratioP1;P2;durP2;ratioP2
1467;SDS011;727;48.892;9.544;2023-06-22T00:02:00;9.20;;;7.27;;
1467;SDS011;727;48.892;9.544;2023-06-22T00:04:27;9.33;;;8.10;;
1467;SDS011;727;48.892;9.544;2023-06-22T00:06:54;9.50;;;8.70;;
1467;SDS011;727;48.892;9.544;2023-06-22T00:09:21;14.73;;;9.77;;
1467;SDS011;727;48.892;9.544;2023-06-22T00:11:49;8.47;;;7.67;;
1467;SDS011;727;48.892;9.544;2023-06-22T00:14:16;10.30;;;9.40;;
1467;SDS011;727;48.892;9.544;2023-06-22T00:16:42;9.50;;;8.60;;
1467;SDS011;727;48.892;9.544;2023-06-22T00:19:09;11.10;;;10.20;;
1467;SDS011;727;48.892;9.544;2023-06-22T00:21:37;11.67;;;9.03;;
1467;SDS011;727;48.892;9.544;2023-06-22T00:24:04;9.67;;;8.67;;
1467;SDS011;727;48.892;9.544;2023-06-22T00:26:32;9.07;;;8.17;;
1467;SDS011;727;48.892;9.544;2023-06-22T00:29:00;8.80;;;7.90;;
1467;SDS011;727;48.892;9.544;2023-06-22T00:31:27;9.57;;;8.67;;
1467;SDS011;727;48.892;9.544;2023-06-22T00:33:53;10.03;;;9.03;;
1467;SDS011;727;48.892;9.544;2023-06-22T00:36:20;9.80;;;8.50;;
1467;SDS011;727;48.892;9.544;2023-06-22T00:38:49;9.30;;;8.60;;
1467;SDS011;727;48.892;9.544;2023-06-22T00:41:16;8.80;;;8.10;;
1467;SDS011;727;48.892;9.544;2023-06-22T00:43:43;9.77;;;8.77;;
1467;SDS011;727;48.892;9.544;2023-06-22T00:46:12;9.00;;;8.20;;
1467;SDS011;727;48.892;9.544;2023-06-22T00:48:39;10.90;;;9.80;;
1467;SDS011;727;48.892;9.544;2023-06-22T00:51:09;10.37;;;9.37;;
1467;SDS011;727;48.892;9.544;2023-06-22T00:53:36;10.93;;;9.90;;
1467;SDS011;727;48.892;9.544;2023-06-22T00:56:03;9.33;;;8.00;;
1467;SDS011;727;48.892;9.544;2023-06-22T00:58:31;10.00;;;9.00;;
1467;SDS011;727;48.892;9.544;2023-06-22T01:00:58;12.23;;;10.77;;
1467;SDS011;727;48.892;9.544;2023-06-22T01:03:26;10.67;;;9.47;;
1467;SDS011;727;48.892;9.544;2023-06-22T01:05:53;9.80;;;9.00;;
1467;SDS011;727;48.892;9.544;2023-06-22T01:08:29;13.83;;;11.20;;
1467;SDS011;727;48.892;9.544;2023-06-22T01:11:05;12.70;;;11.43;;
1467;SDS011;727;48.892;9.544;2023-06-22T01:13:37;8.57;;;7.77;;
1467;SDS011;727;48.892;9.544;2023-06-22T01:16:12;10.60;;;9.57;;
1467;SDS011;727;48.892;9.544;2023-06-22T01:18:43;11.77;;;9.57;;
1467;SDS011;727;48.892;9.544;2023-06-22T01:21:14;10.27;;;9.33;;
1467;SDS011;727;48.892;9.544;2023-06-22T01:23:49;11.50;;;10.00;;
1467;SDS011;727;48.892;9.544;2023-06-22T01:26:25;11.80;;;10.70;;
1467;SDS011;727;48.892;9.544;2023-06-22T01:29:02;11.20;;;10.20;;
1467;SDS011;727;48.892;9.544;2023-06-22T01:31:32;9.73;;;8.83;;
1467;SDS011;727;48.892;9.544;2023-06-22T01:34:00;11.23;;;10.13;;
1467;SDS011;727;48.892;9.544;2023-06-22T01:36:29;13.03;;;10.37;;
1467;SDS011;727;48.892;9.544;2023-06-22T01:38:57;13.40;;;12.00;;
1467;SDS011;727;48.892;9.544;2023-06-22T01:41:25;11.43;;;10.23;;
1467;SDS011;727;48.892;9.544;2023-06-22T01:43:54;11.83;;;10.60;;
1467;SDS011;727;48.892;9.544;2023-06-22T01:46:23;12.10;;;11.00;;
1467;SDS011;727;48.892;9.544;2023-06-22T01:48:50;11.37;;;10.27;;
1467;SDS011;727;48.892;9.544;2023-06-22T01:51:18;12.23;;;10.50;;
1467;SDS011;727;48.892;9.544;2023-06-22T01:53:45;11.23;;;10.13;;
1467;SDS011;727;48.892;9.544;2023-06-22T01:56:13;11.13;;;10.07;;
1467;SDS011;727;48.892;9.544;2023-06-22T01:58:44;13.10;;;9.17;;
1467;SDS011;727;48.892;9.544;2023-06-22T02:01:14;10.60;;;9.60;;
1467;SDS011;727;48.892;9.544;2023-06-22T02:03:49;9.90;;;8.90;;
1467;SDS011;727;48.892;9.544;2023-06-22T02:06:21;9.93;;;9.03;;
1467;SDS011;727;48.892;9.544;2023-06-22T02:08:51;13.53;;;8.60;;
1467;SDS011;727;48.892;9.544;2023-06-22T02:11:23;11.47;;;10.30;;
1467;SDS011;727;48.892;9.544;2023-06-22T02:13:54;11.30;;;9.00;;
1467;SDS011;727;48.892;9.544;2023-06-22T02:16:22;11.30;;;10.07;;
1467;SDS011;727;48.892;9.544;2023-06-22T02:18:51;10.07;;;8.90;;
1467;SDS011;727;48.892;9.544;2023-06-22T02:21:18;9.90;;;8.90;;
1467;SDS011;727;48.892;9.544;2023-06-22T02:23:45;10.50;;;9.50;;
1467;SDS011;727;48.892;9.544;2023-06-22T02:26:12;9.10;;;8.20;;
1467;SDS011;727;48.892;9.544;2023-06-22T02:28:40;9.57;;;8.67;;
1467;SDS011;727;48.892;9.544;2023-06-22T02:31:06;10.80;;;8.80;;
1467;SDS011;727;48.892;9.544;2023-06-22T02:33:33;9.80;;;8.90;;
1467;SDS011;727;48.892;9.544;2023-06-22T02:36:01;13.13;;;9.33;;
1467;SDS011;727;48.892;9.544;2023-06-22T02:38:30;9.63;;;8.57;;
1467;SDS011;727;48.892;9.544;2023-06-22T02:40:59;10.50;;;8.50;;
1467;SDS011;727;48.892;9.544;2023-06-22T02:43:26;9.40;;;8.40;;
1467;SDS011;727;48.892;9.544;2023-06-22T02:45:53;9.40;;;8.43;;
1467;SDS011;727;48.892;9.544;2023-06-22T02:48:20;10.20;;;9.30;;
1467;SDS011;727;48.892;9.544;2023-06-22T02:50:47;9.23;;;8.33;;
1467;SDS011;727;48.892;9.544;2023-06-22T02:53:15;9.47;;;8.60;;
1467;SDS011;727;48.892;9.544;2023-06-22T02:55:41;8.97;;;7.73;;
1467;SDS011;727;48.892;9.544;2023-06-22T02:58:08;10.33;;;9.43;;
1467;SDS011;727;48.892;9.544;2023-06-22T03:00:35;10.63;;;8.80;;
1467;SDS011;727;48.892;9.544;2023-06-22T03:03:04;11.90;;;10.03;;
1467;SDS011;727;48.892;9.544;2023-06-22T03:05:31;9.20;;;8.30;;
1467;SDS011;727;48.892;9.544;2023-06-22T03:08:00;11.23;;;10.13;;
1467;SDS011;727;48.892;9.544;2023-06-22T03:10:28;10.00;;;8.27;;
1467;SDS011;727;48.892;9.544;2023-06-22T03:12:55;17.33;;;9.40;;
1467;SDS011;727;48.892;9.544;2023-06-22T03:15:21;10.57;;;9.47;;
1467;SDS011;727;48.892;9.544;2023-06-22T03:17:48;12.13;;;10.57;;
1467;SDS011;727;48.892;9.544;2023-06-22T03:20:15;10.43;;;9.30;;
1467;SDS011;727;48.892;9.544;2023-06-22T03:22:42;16.90;;;10.43;;
1467;SDS011;727;48.892;9.544;2023-06-22T03:25:09;13.13;;;10.00;;
1467;SDS011;727;48.892;9.544;2023-06-22T03:27:39;10.10;;;8.93;;
1467;SDS011;727;48.892;9.544;2023-06-22T03:30:06;13.47;;;9.50;;
1467;SDS011;727;48.892;9.544;2023-06-22T03:32:34;11.73;;;9.40;;
1467;SDS011;727;48.892;9.544;2023-06-22T03:35:01;11.67;;;10.60;;
1467;SDS011;727;48.892;9.544;2023-06-22T03:37:28;17.03;;;11.20;;
1467;SDS011;727;48.892;9.544;2023-06-22T03:39:55;11.70;;;10.33;;
1467;SDS011;727;48.892;9.544;2023-06-22T03:42:22;11.03;;;9.93;;
1467;SDS011;727;48.892;9.544;2023-06-22T03:44:50;13.47;;;11.63;;
1467;SDS011;727;48.892;9.544;2023-06-22T03:47:17;11.23;;;10.10;;
1467;SDS011;727;48.892;9.544;2023-06-22T03:49:43;12.07;;;10.90;;
1467;SDS011;727;48.892;9.544;2023-06-22T03:52:10;11.60;;;10.33;;
1467;SDS011;727;48.892;9.544;2023-06-22T03:54:37;15.57;;;9.60;;
1467;SDS011;727;48.892;9.544;2023-06-22T03:57:04;11.43;;;10.33;;
1467;SDS011;727;48.892;9.544;2023-06-22T03:59:31;11.33;;;10.23;;
1467;SDS011;727;48.892;9.544;2023-06-22T04:02:00;9.93;;;8.93;;
1467;SDS011;727;48.892;9.544;2023-06-22T04:04:27;11.17;;;10.13;;
1467;SDS011;727;48.892;9.544;2023-06-22T04:06:53;11.37;;;10.20;;
1467;SDS011;727;48.892;9.544;2023-06-22T04:09:20;9.97;;;8.97;;
1467;SDS011;727;48.892;9.544;2023-06-22T04:11:47;10.30;;;9.27;;
1467;SDS011;727;48.892;9.544;2023-06-22T04:14:14;12.00;;;10.20;;
1467;SDS011;727;48.892;9.544;2023-06-22T04:16:41;11.07;;;9.03;;
1467;SDS011;727;48.892;9.544;2023-06-22T04:19:09;12.30;;;11.00;;
1467;SDS011;727;48.892;9.544;2023-06-22T04:21:41;11.00;;;10.00;;
1467;SDS011;727;48.892;9.544;2023-06-22T04:24:08;11.70;;;10.70;;
1467;SDS011;727;48.892;9.544;2023-06-22T04:26:34;13.13;;;10.20;;
1467;SDS011;727;48.892;9.544;2023-06-22T04:29:02;11.50;;;9.80;;
1467;SDS011;727;48.892;9.544;2023-06-22T04:31:30;14.03;;;11.20;;
1467;SDS011;727;48.892;9.544;2023-06-22T04:34:02;10.20;;;9.27;;
1467;SDS011;727;48.892;9.544;2023-06-22T04:36:33;14.13;;;10.10;;
1467;SDS011;727;48.892;9.544;2023-06-22T04:39:03;10.27;;;8.93;;
1467;SDS011;727;48.892;9.544;2023-06-22T04:41:31;11.70;;;10.70;;
1467;SDS011;727;48.892;9.544;2023-06-22T04:44:07;10.43;;;9.53;;
1467;SDS011;727;48.892;9.544;2023-06-22T04:46:34;11.33;;;9.70;;
1467;SDS011;727;48.892;9.544;2023-06-22T04:49:04;13.00;;;11.00;;
1467;SDS011;727;48.892;9.544;2023-06-22T04:51:36;14.57;;;9.20;;
1467;SDS011;727;48.892;9.544;2023-06-22T04:54:04;10.40;;;9.30;;
1467;SDS011;727;48.892;9.544;2023-06-22T04:56:31;12.17;;;10.70;;
1467;SDS011;727;48.892;9.544;2023-06-22T04:58:58;11.13;;;9.57;;
1467;SDS011;727;48.892;9.544;2023-06-22T05:01:24;11.63;;;9.67;;
1467;SDS011;727;48.892;9.544;2023-06-22T05:03:51;11.90;;;10.37;;
1467;SDS011;727;48.892;9.544;2023-06-22T05:06:20;11.53;;;9.90;;
1467;SDS011;727;48.892;9.544;2023-06-22T05:08:50;11.10;;;9.40;;
1467;SDS011;727;48.892;9.544;2023-06-22T05:11:18;10.23;;;9.23;;
1467;SDS011;727;48.892;9.544;2023-06-22T05:13:45;10.77;;;9.10;;
1467;SDS011;727;48.892;9.544;2023-06-22T05:16:12;11.77;;;10.03;;
1467;SDS011;727;48.892;9.544;2023-06-22T05:18:38;10.07;;;9.03;;
1467;SDS011;727;48.892;9.544;2023-06-22T05:21:06;9.70;;;8.70;;
1467;SDS011;727;48.892;9.544;2023-06-22T05:23:33;9.67;;;8.67;;
1467;SDS011;727;48.892;9.544;2023-06-22T05:26:01;10.43;;;9.33;;
1467;SDS011;727;48.892;9.544;2023-06-22T05:28:28;12.00;;;10.10;;
1467;SDS011;727;48.892;9.544;2023-06-22T05:30:55;10.67;;;9.27;;
1467;SDS011;727;48.892;9.544;2023-06-22T05:33:24;12.93;;;8.00;;
1467;SDS011;727;48.892;9.544;2023-06-22T05:35:51;8.87;;;7.97;;
1467;SDS011;727;48.892;9.544;2023-06-22T05:38:18;9.83;;;7.30;;
1467;SDS011;727;48.892;9.544;2023-06-22T05:40:44;10.23;;;7.80;;
1467;SDS011;727;48.892;9.544;2023-06-22T05:46:03;8.83;;;7.90;;
1467;SDS011;727;48.892;9.544;2023-06-22T05:48:30;8.50;;;6.53;;
1467;SDS011;727;48.892;9.544;2023-06-22T05:50:57;8.67;;;7.80;;
1467;SDS011;727;48.892;9.544;2023-06-22T05:53:24;10.37;;;7.57;;
1467;SDS011;727;48.892;9.544;2023-06-22T05:55:51;10.80;;;8.30;;
1467;SDS011;727;48.892;9.544;2023-06-22T05:58:18;9.07;;;8.17;;
1467;SDS011;727;48.892;9.544;2023-06-22T06:00:46;11.63;;;8.43;;
1467;SDS011;727;48.892;9.544;2023-06-22T06:03:13;8.40;;;7.47;;
1467;SDS011;727;48.892;9.544;2023-06-22T06:05:42;7.63;;;6.87;;
1467;SDS011;727;48.892;9.544;2023-06-22T06:08:12;7.63;;;6.93;;
1467;SDS011;727;48.892;9.544;2023-06-22T06:10:40;9.43;;;7.10;;
1467;SDS011;727;48.892;9.544;2023-06-22T06:13:07;7.47;;;6.77;;
1467;SDS011;727;48.892;9.544;2023-06-22T06:15:34;7.97;;;7.17;;
1467;SDS011;727;48.892;9.544;2023-06-22T06:18:02;13.23;;;7.90;;
1467;SDS011;727;48.892;9.544;2023-06-22T06:20:31;7.50;;;6.57;;
1467;SDS011;727;48.892;9.544;2023-06-22T06:22:58;10.00;;;7.10;;
1467;SDS011;727;48.892;9.544;2023-06-22T06:25:25;7.97;;;7.33;;
1467;SDS011;727;48.892;9.544;2023-06-22T06:27:52;6.50;;;5.90;;
1467;SDS011;727;48.892;9.544;2023-06-22T06:30:20;8.73;;;7.17;;
1467;SDS011;727;48.892;9.544;2023-06-22T06:32:47;7.03;;;6.33;;
1467;SDS011;727;48.892;9.544;2023-06-22T06:35:15;9.87;;;7.67;;
1467;SDS011;727;48.892;9.544;2023-06-22T06:37:43;7.50;;;6.80;;
1467;SDS011;727;48.892;9.544;2023-06-22T06:40:11;6.67;;;6.00;;
1467;SDS011;727;48.892;9.544;2023-06-22T06:42:40;9.00;;;6.37;;
1467;SDS011;727;48.892;9.544;2023-06-22T06:45:09;9.53;;;6.10;;
1467;SDS011;727;48.892;9.544;2023-06-22T06:47:37;13.43;;;8.00;;
1467;SDS011;727;48.892;9.544;2023-06-22T06:50:05;7.30;;;6.60;;
1467;SDS011;727;48.892;9.544;2023-06-22T06:52:47;8.20;;;6.60;;
1467;SDS011;727;48.892;9.544;2023-06-22T06:55:16;6.50;;;5.90;;
1467;SDS011;727;48.892;9.544;2023-06-22T06:57:44;7.83;;;6.37;;
1467;SDS011;727;48.892;9.544;2023-06-22T07:00:13;6.47;;;5.87;;
1467;SDS011;727;48.892;9.544;2023-06-22T07:02:41;6.43;;;5.87;;
1467;SDS011;727;48.892;9.544;2023-06-22T07:05:09;6.40;;;5.60;;
1467;SDS011;727;48.892;9.544;2023-06-22T07:07:38;6.37;;;5.70;;
1467;SDS011;727;48.892;9.544;2023-06-22T07:10:08;6.10;;;5.60;;
1467;SDS011;727;48.892;9.544;2023-06-22T07:12:35;9.60;;;6.67;;
1467;SDS011;727;48.892;9.544;2023-06-22T07:15:02;6.40;;;5.43;;
1467;SDS011;727;48.892;9.544;2023-06-22T07:17:30;6.23;;;5.60;;
1467;SDS011;727;48.892;9.544;2023-06-22T07:19:57;18.80;;;6.27;;
1467;SDS011;727;48.892;9.544;2023-06-22T07:22:25;9.90;;;6.43;;
1467;SDS011;727;48.892;9.544;2023-06-22T07:24:52;7.50;;;5.03;;
1467;SDS011;727;48.892;9.544;2023-06-22T07:27:20;7.33;;;6.20;;
1467;SDS011;727;48.892;9.544;2023-06-22T07:29:47;9.30;;;5.83;;
1467;SDS011;727;48.892;9.544;2023-06-22T07:32:14;6.67;;;5.80;;
1467;SDS011;727;48.892;9.544;2023-06-22T07:34:42;8.90;;;6.13;;
1467;SDS011;727;48.892;9.544;2023-06-22T07:37:08;10.53;;;5.40;;
1467;SDS011;727;48.892;9.544;2023-06-22T07:39:35;7.27;;;5.57;;
1467;SDS011;727;48.892;9.544;2023-06-22T07:42:02;6.40;;;5.70;;
1467;SDS011;727;48.892;9.544;2023-06-22T07:44:31;14.00;;;6.60;;
1467;SDS011;727;48.892;9.544;2023-06-22T07:46:58;5.67;;;4.80;;
1467;SDS011;727;48.892;9.544;2023-06-22T07:49:25;7.70;;;5.30;;
1467;SDS011;727;48.892;9.544;2023-06-22T07:51:51;5.90;;;5.40;;
1467;SDS011;727;48.892;9.544;2023-06-22T07:54:18;10.27;;;5.93;;
1467;SDS011;727;48.892;9.544;2023-06-22T07:56:45;7.27;;;5.07;;
1467;SDS011;727;48.892;9.544;2023-06-22T07:59:12;6.50;;;5.07;;
1467;SDS011;727;48.892;9.544;2023-06-22T08:01:40;6.33;;;5.00;;
1467;SDS011;727;48.892;9.544;2023-06-22T08:04:08;13.00;;;5.50;;
1467;SDS011;727;48.892;9.544;2023-06-22T08:06:35;9.70;;;5.20;;
1467;SDS011;727;48.892;9.544;2023-06-22T08:09:01;6.47;;;5.20;;
1467;SDS011;727;48.892;9.544;2023-06-22T08:11:29;12.40;;;5.83;;
1467;SDS011;727;48.892;9.544;2023-06-22T08:13:56;5.00;;;4.60;;
1467;SDS011;727;48.892;9.544;2023-06-22T08:16:23;7.50;;;4.77;;
1467;SDS011;727;48.892;9.544;2023-06-22T08:18:51;11.00;;;5.47;;
1467;SDS011;727;48.892;9.544;2023-06-22T08:21:18;9.37;;;5.00;;
1467;SDS011;727;48.892;9.544;2023-06-22T08:23:45;7.13;;;4.90;;
1467;SDS011;727;48.892;9.544;2023-06-22T08:26:12;10.77;;;5.80;;
1467;SDS011;727;48.892;9.544;2023-06-22T08:28:38;6.40;;;4.80;;
1467;SDS011;727;48.892;9.544;2023-06-22T08:31:05;7.47;;;5.47;;
1467;SDS011;727;48.892;9.544;2023-06-22T08:33:32;13.20;;;4.80;;
1467;SDS011;727;48.892;9.544;2023-06-22T08:36:00;6.03;;;5.03;;
1467;SDS011;727;48.892;9.544;2023-06-22T08:38:27;12.10;;;5.70;;
1467;SDS011;727;48.892;9.544;2023-06-22T08:40:54;14.43;;;5.07;;
1467;SDS011;727;48.892;9.544;2023-06-22T08:43:20;5.30;;;4.80;;
1467;SDS011;727;48.892;9.544;2023-06-22T08:45:47;6.00;;;4.70;;
1467;SDS011;727;48.892;9.544;2023-06-22T08:48:14;13.93;;;6.30;;
1467;SDS011;727;48.892;9.544;2023-06-22T08:50:41;5.87;;;4.50;;
1467;SDS011;727;48.892;9.544;2023-06-22T08:53:09;5.30;;;4.90;;
1467;SDS011;727;48.892;9.544;2023-06-22T08:55:36;6.90;;;4.10;;
1467;SDS011;727;48.892;9.544;2023-06-22T08:58:02;9.50;;;5.37;;
1467;SDS011;727;48.892;9.544;2023-06-22T09:00:30;8.77;;;4.80;;
1467;SDS011;727;48.892;9.544;2023-06-22T09:02:59;5.90;;;4.97;;
1467;SDS011;727;48.892;9.544;2023-06-22T09:05:29;6.47;;;4.63;;
1467;SDS011;727;48.892;9.544;2023-06-22T09:07:56;8.00;;;5.03;;
1467;SDS011;727;48.892;9.544;2023-06-22T09:10:25;9.03;;;6.70;;
1467;SDS011;727;48.892;9.544;2023-06-22T09:12:52;7.30;;;6.10;;
1467;SDS011;727;48.892;9.544;2023-06-22T09:15:18;9.43;;;4.97;;
1467;SDS011;727;48.892;9.544;2023-06-22T09:17:45;7.47;;;5.10;;
1467;SDS011;727;48.892;9.544;2023-06-22T09:20:12;7.77;;;5.30;;
1467;SDS011;727;48.892;9.544;2023-06-22T09:22:39;9.33;;;5.10;;
1467;SDS011;727;48.892;9.544;2023-06-22T09:25:06;8.60;;;5.80;;
1467;SDS011;727;48.892;9.544;2023-06-22T09:27:35;9.10;;;5.10;;
1467;SDS011;727;48.892;9.544;2023-06-22T09:30:02;9.07;;;5.80;;
1467;SDS011;727;48.892;9.544;2023-06-22T09:32:29;6.43;;;4.80;;
1467;SDS011;727;48.892;9.544;2023-06-22T09:34:56;9.13;;;6.07;;
1467;SDS011;727;48.892;9.544;2023-06-22T09:37:23;8.93;;;6.00;;
1467;SDS011;727;48.892;9.544;2023-06-22T09:39:50;10.70;;;6.07;;
1467;SDS011;727;48.892;9.544;2023-06-22T09:42:16;11.57;;;4.70;;
1467;SDS011;727;48.892;9.544;2023-06-22T09:44:45;7.63;;;5.10;;
1467;SDS011;727;48.892;9.544;2023-06-22T09:47:11;5.43;;;4.83;;
1467;SDS011;727;48.892;9.544;2023-06-22T09:49:38;8.60;;;5.20;;
1467;SDS011;727;48.892;9.544;2023-06-22T09:52:05;16.20;;;5.03;;
1467;SDS011;727;48.892;9.544;2023-06-22T09:54:32;7.73;;;4.90;;
1467;SDS011;727;48.892;9.544;2023-06-22T09:56:59;6.73;;;4.90;;
1467;SDS011;727;48.892;9.544;2023-06-22T09:59:27;13.27;;;5.43;;
1467;SDS011;727;48.892;9.544;2023-06-22T10:01:55;9.90;;;5.80;;
1467;SDS011;727;48.892;9.544;2023-06-22T10:04:22;7.00;;;4.80;;
1467;SDS011;727;48.892;9.544;2023-06-22T10:06:49;5.73;;;4.80;;
1467;SDS011;727;48.892;9.544;2023-06-22T10:09:16;7.73;;;6.07;;
1467;SDS011;727;48.892;9.544;2023-06-22T10:11:43;10.80;;;5.50;;
1467;SDS011;727;48.892;9.544;2023-06-22T10:14:10;8.40;;;5.50;;
1467;SDS011;727;48.892;9.544;2023-06-22T10:16:37;7.60;;;5.50;;
1467;SDS011;727;48.892;9.544;2023-06-22T10:19:05;8.10;;;5.27;;
1467;SDS011;727;48.892;9.544;2023-06-22T10:21:32;8.90;;;5.70;;
1467;SDS011;727;48.892;9.544;2023-06-22T10:23:59;10.63;;;5.70;;
1467;SDS011;727;48.892;9.544;2023-06-22T10:26:31;12.83;;;5.90;;
1467;SDS011;727;48.892;9.544;2023-06-22T10:28:57;8.00;;;6.30;;
1467;SDS011;727;48.892;9.544;2023-06-22T10:31:25;9.83;;;5.80;;
1467;SDS011;727;48.892;9.544;2023-06-22T10:33:53;9.03;;;5.77;;
1467;SDS011;727;48.892;9.544;2023-06-22T10:36:21;9.53;;;5.80;;
1467;SDS011;727;48.892;9.544;2023-06-22T10:38:48;7.00;;;5.30;;
1467;SDS011;727;48.892;9.544;2023-06-22T10:41:15;7.20;;;5.10;;
1467;SDS011;727;48.892;9.544;2023-06-22T10:43:42;8.80;;;5.60;;
1467;SDS011;727;48.892;9.544;2023-06-22T10:46:09;9.47;;;6.00;;
1467;SDS011;727;48.892;9.544;2023-06-22T10:48:36;9.13;;;6.17;;
1467;SDS011;727;48.892;9.544;2023-06-22T10:51:03;10.90;;;5.70;;
1467;SDS011;727;48.892;9.544;2023-06-22T10:53:31;7.83;;;5.53;;
1467;SDS011;727;48.892;9.544;2023-06-22T10:55:59;12.00;;;6.00;;
1467;SDS011;727;48.892;9.544;2023-06-22T10:58:26;11.73;;;6.07;;
1467;SDS011;727;48.892;9.544;2023-06-22T11:00:53;6.60;;;5.60;;
1467;SDS011;727;48.892;9.544;2023-06-22T11:03:20;10.10;;;6.57;;
1467;SDS011;727;48.892;9.544;2023-06-22T11:05:47;10.77;;;6.10;;
1467;SDS011;727;48.892;9.544;2023-06-22T11:08:14;10.43;;;5.47;;
1467;SDS011;727;48.892;9.544;2023-06-22T11:10:42;7.27;;;5.80;;
1467;SDS011;727;48.892;9.544;2023-06-22T11:13:10;8.23;;;5.13;;
1467;SDS011;727;48.892;9.544;2023-06-22T11:15:37;8.03;;;5.97;;
1467;SDS011;727;48.892;9.544;2023-06-22T11:18:05;7.90;;;5.30;;
1467;SDS011;727;48.892;9.544;2023-06-22T11:20:33;9.37;;;5.67;;
1467;SDS011;727;48.892;9.544;2023-06-22T11:23:03;8.90;;;6.37;;
1467;SDS011;727;48.892;9.544;2023-06-22T11:25:31;9.30;;;5.80;;
1467;SDS011;727;48.892;9.544;2023-06-22T11:28:01;15.93;;;6.50;;
1467;SDS011;727;48.892;9.544;2023-06-22T11:30:28;15.50;;;6.33;;
1467;SDS011;727;48.892;9.544;2023-06-22T11:32:55;8.53;;;5.97;;
1467;SDS011;727;48.892;9.544;2023-06-22T11:35:22;14.03;;;6.00;;
1467;SDS011;727;48.892;9.544;2023-06-22T11:37:49;14.03;;;5.83;;
1467;SDS011;727;48.892;9.544;2023-06-22T11:40:16;10.40;;;5.87;;
1467;SDS011;727;48.892;9.544;2023-06-22T11:42:44;8.70;;;5.83;;
1467;SDS011;727;48.892;9.544;2023-06-22T11:45:12;21.67;;;7.17;;
1467;SDS011;727;48.892;9.544;2023-06-22T11:47:40;10.00;;;6.10;;
1467;SDS011;727;48.892;9.544;2023-06-22T11:50:07;12.73;;;5.40;;
1467;SDS011;727;48.892;9.544;2023-06-22T11:52:34;7.70;;;5.57;;
1467;SDS011;727;48.892;9.544;2023-06-22T11:55:02;8.23;;;6.10;;
1467;SDS011;727;48.892;9.544;2023-06-22T11:57:30;9.50;;;5.63;;
1467;SDS011;727;48.892;9.544;2023-06-22T11:59:58;12.37;;;5.60;;
1467;SDS011;727;48.892;9.544;2023-06-22T12:02:27;10.10;;;6.60;;
1467;SDS011;727;48.892;9.544;2023-06-22T12:04:54;10.10;;;5.60;;
1467;SDS011;727;48.892;9.544;2023-06-22T12:07:23;11.33;;;5.90;;
1467;SDS011;727;48.892;9.544;2023-06-22T12:09:50;13.13;;;6.20;;
1467;SDS011;727;48.892;9.544;2023-06-22T12:12:17;10.57;;;6.00;;
1467;SDS011;727;48.892;9.544;2023-06-22T12:14:48;10.33;;;6.27;;
1467;SDS011;727;48.892;9.544;2023-06-22T12:17:15;13.33;;;6.00;;
1467;SDS011;727;48.892;9.544;2023-06-22T12:19:43;14.63;;;6.50;;
1467;SDS011;727;48.892;9.544;2023-06-22T12:22:10;7.53;;;5.83;;
1467;SDS011;727;48.892;9.544;2023-06-22T12:24:37;10.53;;;6.60;;
1467;SDS011;727;48.892;9.544;2023-06-22T12:27:04;14.20;;;6.33;;
1467;SDS011;727;48.892;9.544;2023-06-22T12:29:31;12.70;;;5.73;;
1467;SDS011;727;48.892;9.544;2023-06-22T12:31:58;10.93;;;6.60;;
1467;SDS011;727;48.892;9.544;2023-06-22T12:34:25;9.53;;;5.97;;
1467;SDS011;727;48.892;9.544;2023-06-22T12:40:06;10.37;;;6.30;;
1467;SDS011;727;48.892;9.544;2023-06-22T12:42:34;10.27;;;6.40;;
1467;SDS011;727;48.892;9.544;2023-06-22T12:45:06;11.87;;;6.40;;
1467;SDS011;727;48.892;9.544;2023-06-22T12:47:33;10.77;;;7.00;;
1467;SDS011;727;48.892;9.544;2023-06-22T12:53:03;12.20;;;7.10;;
1467;SDS011;727;48.892;9.544;2023-06-22T13:34:26;11.00;;;6.70;;
1467;SDS011;727;48.892;9.544;2023-06-22T13:36:54;13.03;;;7.10;;
1467;SDS011;727;48.892;9.544;2023-06-22T13:39:23;12.30;;;7.17;;
1467;SDS011;727;48.892;9.544;2023-06-22T13:42:07;14.07;;;6.83;;
1467;SDS011;727;48.892;9.544;2023-06-22T13:44:34;10.73;;;6.83;;
1467;SDS011;727;48.892;9.544;2023-06-22T13:47:01;11.37;;;6.83;;
1467;SDS011;727;48.892;9.544;2023-06-22T13:49:33;8.17;;;6.60;;
1467;SDS011;727;48.892;9.544;2023-06-22T13:52:00;9.07;;;6.77;;
1467;SDS011;727;48.892;9.544;2023-06-22T13:54:28;13.20;;;6.90;;
1467;SDS011;727;48.892;9.544;2023-06-22T13:56:55;13.33;;;7.40;;
1467;SDS011;727;48.892;9.544;2023-06-22T13:59:22;10.20;;;7.30;;
1467;SDS011;727;48.892;9.544;2023-06-22T14:01:48;12.37;;;5.43;;
1467;SDS011;727;48.892;9.544;2023-06-22T14:04:15;10.83;;;6.47;;
1467;SDS011;727;48.892;9.544;2023-06-22T14:06:44;9.80;;;6.73;;
1467;SDS011;727;48.892;9.544;2023-06-22T14:09:10;9.13;;;5.97;;
1467;SDS011;727;48.892;9.544;2023-06-22T14:11:44;11.13;;;6.30;;
1467;SDS011;727;48.892;9.544;2023-06-22T14:14:11;10.40;;;6.53;;
1467;SDS011;727;48.892;9.544;2023-06-22T14:16:38;11.13;;;6.70;;
1467;SDS011;727;48.892;9.544;2023-06-22T14:19:05;14.20;;;7.87;;
1467;SDS011;727;48.892;9.544;2023-06-22T14:21:32;14.40;;;7.13;;
1467;SDS011;727;48.892;9.544;2023-06-22T14:24:00;9.60;;;7.40;;
1467;SDS011;727;48.892;9.544;2023-06-22T14:26:27;7.47;;;6.70;;
1467;SDS011;727;48.892;9.544;2023-06-22T14:28:54;9.93;;;6.83;;
1467;SDS011;727;48.892;9.544;2023-06-22T14:31:22;13.60;;;8.50;;
1467;SDS011;727;48.892;9.544;2023-06-22T14:34:01;10.60;;;6.97;;
1467;SDS011;727;48.892;9.544;2023-06-22T14:36:31;12.93;;;6.93;;
1467;SDS011;727;48.892;9.544;2023-06-22T14:38:59;12.53;;;6.53;;
1467;SDS011;727;48.892;9.544;2023-06-22T14:41:26;9.93;;;6.90;;
1467;SDS011;727;48.892;9.544;2023-06-22T14:43:54;13.67;;;6.80;;
1467;SDS011;727;48.892;9.544;2023-06-22T14:46:21;8.00;;;7.20;;
1467;SDS011;727;48.892;9.544;2023-06-22T14:48:50;11.63;;;7.07;;
1467;SDS011;727;48.892;9.544;2023-06-22T14:51:17;9.10;;;6.50;;
1467;SDS011;727;48.892;9.544;2023-06-22T14:53:45;7.90;;;6.73;;
1467;SDS011;727;48.892;9.544;2023-06-22T14:56:15;11.50;;;6.53;;
1467;SDS011;727;48.892;9.544;2023-06-22T14:58:43;10.93;;;7.43;;
1467;SDS011;727;48.892;9.544;2023-06-22T15:01:11;11.30;;;6.93;;
1467;SDS011;727;48.892;9.544;2023-06-22T15:03:53;10.87;;;7.13;;
1467;SDS011;727;48.892;9.544;2023-06-22T15:06:26;11.33;;;6.40;;
1467;SDS011;727;48.892;9.544;2023-06-22T15:09:11;13.13;;;7.40;;
1467;SDS011;727;48.892;9.544;2023-06-22T15:11:56;10.20;;;6.00;;
1467;SDS011;727;48.892;9.544;2023-06-22T15:14:25;15.23;;;6.10;;
1467;SDS011;727;48.892;9.544;2023-06-22T15:16:52;10.80;;;6.90;;
1467;SDS011;727;48.892;9.544;2023-06-22T15:19:20;8.73;;;6.87;;
1467;SDS011;727;48.892;9.544;2023-06-22T15:21:49;14.97;;;7.37;;
1467;SDS011;727;48.892;9.544;2023-06-22T15:24:19;10.40;;;6.33;;
1467;SDS011;727;48.892;9.544;2023-06-22T15:26:46;13.30;;;5.77;;
1467;SDS011;727;48.892;9.544;2023-06-22T15:29:31;12.40;;;6.40;;
1467;SDS011;727;48.892;9.544;2023-06-22T15:31:59;13.37;;;6.13;;
1467;SDS011;727;48.892;9.544;2023-06-22T15:34:26;9.03;;;5.80;;
1467;SDS011;727;48.892;9.544;2023-06-22T15:36:54;16.13;;;6.67;;
1467;SDS011;727;48.892;9.544;2023-06-22T15:39:21;11.40;;;5.80;;
1467;SDS011;727;48.892;9.544;2023-06-22T15:41:52;9.87;;;5.43;;
1467;SDS011;727;48.892;9.544;2023-06-22T15:44:25;19.23;;;5.47;;
1467;SDS011;727;48.892;9.544;2023-06-22T15:47:03;10.87;;;5.77;;
1467;SDS011;727;48.892;9.544;2023-06-22T15:49:33;12.70;;;6.07;;
1467;SDS011;727;48.892;9.544;2023-06-22T15:52:01;12.00;;;5.97;;
1467;SDS011;727;48.892;9.544;2023-06-22T15:54:29;11.10;;;5.23;;
1467;SDS011;727;48.892;9.544;2023-06-22T15:56:57;9.07;;;6.70;;
1467;SDS011;727;48.892;9.544;2023-06-22T15:59:23;16.07;;;5.87;;
1467;SDS011;727;48.892;9.544;2023-06-22T16:01:52;14.20;;;7.27;;
1467;SDS011;727;48.892;9.544;2023-06-22T16:04:20;9.80;;;6.60;;
1467;SDS011;727;48.892;9.544;2023-06-22T16:06:47;11.70;;;6.07;;
1467;SDS011;727;48.892;9.544;2023-06-22T16:09:14;11.67;;;5.27;;
1467;SDS011;727;48.892;9.544;2023-06-22T16:11:41;12.43;;;6.10;;
1467;SDS011;727;48.892;9.544;2023-06-22T16:14:07;11.77;;;5.47;;